createdAt,value
2022-12-31T00:03:10.821Z,19.4
2022-12-31T00:08:13.803Z,19.4
2022-12-31T00:13:13.525Z,19.4
2022-12-31T00:18:13.833Z,19.4
2022-12-31T00:23:13.742Z,19.4
2022-12-31T00:28:13.677Z,19.4
2022-12-31T00:33:13.840Z,19.4
2022-12-31T00:38:13.959Z,19.4
2022-12-31T00:43:14.073Z,19.3
2022-12-31T00:48:14.133Z,19.3
2022-12-31T00:53:14.500Z,19.3
2022-12-31T00:58:14.697Z,19.4
2022-12-31T01:03:14.490Z,19.2
2022-12-31T01:08:14.624Z,19.3
2022-12-31T01:13:14.549Z,19.3
2022-12-31T01:18:14.860Z,19.3
2022-12-31T01:23:15.134Z,19.2
2022-12-31T01:28:15.467Z,19.3
2022-12-31T01:33:15.756Z,19.3
2022-12-31T01:38:16.224Z,19.2
2022-12-31T01:43:16.331Z,19.3
2022-12-31T01:48:16.507Z,18.9
2022-12-31T01:53:16.670Z,19.2
2022-12-31T01:58:17.010Z,19.2
2022-12-31T02:03:17.485Z,19.2
2022-12-31T02:08:17.595Z,19.2
2022-12-31T02:13:17.720Z,19.2
2022-12-31T02:18:18.064Z,19.1
2022-12-31T02:23:17.062Z,19
2022-12-31T02:28:17.580Z,19.1
2022-12-31T02:33:17.831Z,19.1
2022-12-31T02:38:17.775Z,19.1
2022-12-31T02:43:20.882Z,19.1
2022-12-31T02:48:20.690Z,19.1
2022-12-31T02:53:20.875Z,19.1
2022-12-31T02:58:24.021Z,19.1
2022-12-31T03:03:23.701Z,19.1
2022-12-31T03:08:23.885Z,19
2022-12-31T03:13:23.865Z,19.1
2022-12-31T03:18:24.125Z,19
2022-12-31T03:23:24.097Z,19.1
2022-12-31T03:28:24.302Z,19
2022-12-31T03:33:24.340Z,19
2022-12-31T03:38:24.537Z,19
2022-12-31T03:43:24.692Z,19
2022-12-31T03:48:24.929Z,19.1
2022-12-31T03:53:25.070Z,19
2022-12-31T03:58:25.441Z,19.1
2022-12-31T04:03:25.501Z,19
2022-12-31T04:08:28.611Z,19
2022-12-31T04:13:28.531Z,19
2022-12-31T04:18:28.835Z,19
2022-12-31T04:23:29.017Z,18.9
2022-12-31T04:28:28.925Z,19
2022-12-31T04:33:29.236Z,18.9
2022-12-31T04:38:29.291Z,19
2022-12-31T04:43:29.311Z,18.9
2022-12-31T04:48:32.075Z,18.9
2022-12-31T04:53:31.779Z,18.9
2022-12-31T04:58:32.084Z,18.9
2022-12-31T05:03:32.113Z,18.9
2022-12-31T05:08:32.327Z,18.9
2022-12-31T05:13:33.435Z,18.8
2022-12-31T05:18:32.739Z,18.9
2022-12-31T05:23:32.727Z,18.8
2022-12-31T05:28:32.895Z,18.8
2022-12-31T05:33:32.924Z,18.8
2022-12-31T05:38:33.029Z,18.8
2022-12-31T05:43:33.086Z,18.7
2022-12-31T05:48:33.232Z,18.6
2022-12-31T05:53:33.224Z,18.7
2022-12-31T05:58:33.522Z,18.6
2022-12-31T06:03:33.778Z,18.7
2022-12-31T06:08:34.099Z,18.7
2022-12-31T06:13:34.521Z,18.7
2022-12-31T06:18:34.784Z,18.7
2022-12-31T06:23:35.291Z,18.8
2022-12-31T06:28:35.774Z,18.8
2022-12-31T06:33:36.023Z,19
2022-12-31T06:38:36.278Z,19.1
2022-12-31T06:43:36.383Z,19.2
2022-12-31T06:48:36.459Z,19.4
2022-12-31T06:53:39.504Z,19.4
2022-12-31T06:58:39.633Z,19.5
2022-12-31T07:03:40.098Z,19.7
2022-12-31T07:08:40.393Z,19.9
2022-12-31T07:13:40.734Z,19.9
2022-12-31T07:18:40.865Z,20.1
2022-12-31T07:23:41.281Z,20.2
2022-12-31T07:28:44.045Z,20.3
2022-12-31T07:33:43.755Z,20.4
2022-12-31T07:38:44.127Z,20.4
2022-12-31T07:43:44.445Z,20.5
2022-12-31T07:48:44.793Z,20.6
2022-12-31T07:53:45.161Z,20.6
2022-12-31T07:58:45.462Z,20.5
2022-12-31T08:03:45.716Z,20.4
2022-12-31T08:08:46.067Z,20.3
2022-12-31T08:13:46.259Z,20
2022-12-31T08:18:49.426Z,20.3
2022-12-31T08:23:49.129Z,20.3
2022-12-31T08:28:49.417Z,20.3
2022-12-31T08:33:49.636Z,20.3
2022-12-31T08:38:49.753Z,20.3
2022-12-31T08:43:52.721Z,20.1
2022-12-31T08:48:52.519Z,20.1
2022-12-31T08:53:55.701Z,20
2022-12-31T08:58:55.475Z,20
2022-12-31T09:03:55.606Z,20
2022-12-31T09:08:55.855Z,20
2022-12-31T09:13:58.850Z,20
2022-12-31T09:18:58.528Z,20
2022-12-31T09:24:00.891Z,20
2022-12-31T09:28:59.009Z,20
2022-12-31T09:33:58.965Z,20.1
2022-12-31T09:38:58.988Z,20.1
2022-12-31T09:44:01.105Z,20.2
2022-12-31T09:49:00.023Z,20.2
2022-12-31T09:54:00.070Z,20.3
2022-12-31T09:59:00.426Z,20.2
2022-12-31T10:04:01.464Z,20.2
2022-12-31T10:09:01.525Z,20.2
2022-12-31T10:14:05.524Z,20.1
2022-12-31T10:19:05.194Z,20.2
2022-12-31T10:24:05.208Z,20.2
2022-12-31T10:29:05.350Z,20.1
2022-12-31T10:34:08.444Z,20
2022-12-31T10:39:13.441Z,20.1
2022-12-31T10:44:10.151Z,20.1
2022-12-31T10:49:10.039Z,20.1
2022-12-31T10:54:10.521Z,20.1
2022-12-31T10:59:10.273Z,20.2
2022-12-31T11:04:10.762Z,20.6
2022-12-31T11:09:11.716Z,20.9
2022-12-31T11:14:12.445Z,21.1
2022-12-31T11:19:12.812Z,21.3
2022-12-31T11:24:12.629Z,21.4
2022-12-31T11:29:12.973Z,21.6
2022-12-31T11:34:13.167Z,21.8
2022-12-31T11:39:13.409Z,22
2022-12-31T11:44:13.600Z,22
2022-12-31T11:49:13.910Z,22
2022-12-31T11:54:14.065Z,22.2
2022-12-31T11:59:18.813Z,22.2
2022-12-31T12:04:14.591Z,22.1
2022-12-31T12:09:14.710Z,22.3
2022-12-31T12:14:14.975Z,22.4
2022-12-31T12:19:15.049Z,23
2022-12-31T12:24:15.052Z,23.2
2022-12-31T12:29:15.169Z,23.4
2022-12-31T12:34:15.263Z,23.5
2022-12-31T12:39:15.521Z,23.4
2022-12-31T12:44:15.720Z,23.3
2022-12-31T12:49:16.079Z,23.2
2022-12-31T12:54:16.424Z,23.6
2022-12-31T12:59:16.762Z,23.3
2022-12-31T13:04:33.824Z,23.3
2022-12-31T13:09:17.631Z,23.4
2022-12-31T13:14:20.351Z,23.4
2022-12-31T13:19:20.195Z,23.5
2022-12-31T13:24:20.168Z,23.5
2022-12-31T13:29:23.207Z,23.4
2022-12-31T13:34:22.862Z,23.4
2022-12-31T13:39:23.002Z,23.3
2022-12-31T13:44:23.324Z,23.5
2022-12-31T13:49:23.529Z,23.5
2022-12-31T13:54:23.738Z,23.4
2022-12-31T13:59:26.825Z,23.5
2022-12-31T14:04:26.757Z,23.5
2022-12-31T14:09:26.771Z,23.5
2022-12-31T14:14:26.796Z,23.6
2022-12-31T14:19:31.672Z,23.5
2022-12-31T14:24:27.438Z,23.5
2022-12-31T14:29:27.646Z,23.4
2022-12-31T14:34:27.812Z,23.5
2022-12-31T14:39:28.002Z,23.4
2022-12-31T14:44:28.422Z,23.4
2022-12-31T14:49:28.552Z,23.4
2022-12-31T14:54:29.242Z,23.3
2022-12-31T14:59:29.192Z,23.5
2022-12-31T15:04:29.418Z,23.5
2022-12-31T15:09:29.631Z,23.4
2022-12-31T15:14:36.802Z,23.4
2022-12-31T15:19:30.236Z,23.4
2022-12-31T15:24:30.655Z,23.5
2022-12-31T15:29:30.717Z,23.3
2022-12-31T15:34:31.080Z,23.4
2022-12-31T15:39:34.079Z,23.5
2022-12-31T15:44:33.863Z,23.4
2022-12-31T15:49:33.917Z,23.4
2022-12-31T15:54:34.097Z,23.4
2022-12-31T15:59:34.060Z,23.4
2022-12-31T16:04:34.125Z,23.5
2022-12-31T16:09:36.913Z,23.4
2022-12-31T16:14:36.736Z,23.4
2022-12-31T16:19:36.987Z,23.4
2022-12-31T16:24:44.485Z,23.4
2022-12-31T16:29:37.097Z,23.4
2022-12-31T16:34:37.240Z,23.4
2022-12-31T16:39:37.495Z,23.5
2022-12-31T16:44:37.844Z,23.4
2022-12-31T16:49:38.105Z,23.5
2022-12-31T16:54:40.979Z,23.5
2022-12-31T16:59:40.648Z,23.4
2022-12-31T17:04:46.022Z,23.4
2022-12-31T17:09:41.111Z,23.4
2022-12-31T17:14:41.294Z,23.4
2022-12-31T17:19:42.652Z,23.4
2022-12-31T17:24:42.671Z,23.3
2022-12-31T17:29:45.443Z,23.4
2022-12-31T17:34:47.746Z,23.2
2022-12-31T17:39:47.456Z,23.3
2022-12-31T17:44:47.494Z,23.3
2022-12-31T17:49:47.875Z,23.4
2022-12-31T17:54:47.866Z,23.4
2022-12-31T17:59:48.060Z,23.2
2022-12-31T18:04:48.171Z,23
2022-12-31T18:09:50.966Z,22.5
2022-12-31T18:14:49.967Z,22
2022-12-31T18:20:06.247Z,21.7
2022-12-31T18:24:49.866Z,21.4
2022-12-31T18:29:49.830Z,21.2
2022-12-31T18:34:49.789Z,21.2
2022-12-31T18:39:50.125Z,21
2022-12-31T18:44:50.046Z,20.8
2022-12-31T18:49:50.266Z,20.7
2022-12-31T18:54:50.310Z,20.7
2022-12-31T18:59:50.472Z,20.6
2022-12-31T19:04:50.575Z,20.6
2022-12-31T19:09:54.732Z,20.6
2022-12-31T19:14:51.142Z,20.5
2022-12-31T19:19:53.967Z,20.4
2022-12-31T19:24:53.652Z,20.5
2022-12-31T19:29:53.932Z,20.4
2022-12-31T19:34:54.156Z,20.4
2022-12-31T19:39:54.484Z,20.4
2022-12-31T19:44:54.768Z,20.2
2022-12-31T19:49:55.037Z,20.1
2022-12-31T19:54:55.318Z,20.2
2022-12-31T19:59:55.606Z,20.2
2022-12-31T20:04:56.011Z,20.2
2022-12-31T20:09:56.133Z,20.2
2022-12-31T20:14:56.457Z,20.1
2022-12-31T20:19:59.210Z,20.1
2022-12-31T20:24:58.855Z,20.1
2022-12-31T20:29:58.982Z,20.1
2022-12-31T20:34:59.094Z,20.1
2022-12-31T20:39:59.374Z,20
2022-12-31T20:44:59.799Z,20.1
2022-12-31T20:50:15.465Z,20
2022-12-31T20:55:00.342Z,20.1
2022-12-31T21:00:03.446Z,20
2022-12-31T21:05:03.314Z,20.1
2022-12-31T21:10:03.302Z,20
2022-12-31T21:15:03.324Z,20
2022-12-31T21:20:03.526Z,20
2022-12-31T21:25:03.637Z,20
2022-12-31T21:30:19.841Z,20
2022-12-31T21:35:40.670Z,19.9
2022-12-31T21:40:04.245Z,19.9
2022-12-31T21:45:07.293Z,19.9
2022-12-31T21:50:09.757Z,19.9
2022-12-31T21:55:09.633Z,19.9
2022-12-31T22:00:40.186Z,19.9
2022-12-31T22:05:17.509Z,19.9
2022-12-31T22:10:10.477Z,19.8
2022-12-31T22:15:14.162Z,19.8
2022-12-31T22:20:31.125Z,19.8
2022-12-31T22:25:18.198Z,19.8
2022-12-31T22:30:17.708Z,19.8
2022-12-31T22:35:17.835Z,19.8
2022-12-31T22:40:17.735Z,19.8
2022-12-31T22:45:17.749Z,19.8
2022-12-31T22:50:19.269Z,19.7
2022-12-31T22:55:18.639Z,19.7
2022-12-31T23:00:19.665Z,19.6
2022-12-31T23:05:20.580Z,19.7
2022-12-31T23:10:20.952Z,19.7
2022-12-31T23:15:21.337Z,19.6
2022-12-31T23:20:24.388Z,19.6
2022-12-31T23:25:24.166Z,19.7
2022-12-31T23:30:24.176Z,19.6
2022-12-31T23:35:24.480Z,19.6
2022-12-31T23:40:24.559Z,19.5
2022-12-31T23:45:28.239Z,19.5
2022-12-31T23:50:24.752Z,19.5
2022-12-31T23:55:24.937Z,19.6
